Nearby METAR Reports

 

LEVC - Valencia (civ/Mi, Spain
Distacia desde Piles: NO 69km
Actu.: 15/12/2018 16:00
Despejado
Despejado
 Viento del OSO
Viento: OSO 15 km/h
Temperatura: 19°C
Rocío: 9°C
Humedad: 52%
Barómetro: 1021 hPa
Resumen: Despejado
Visibility: greater than 10 km
2018/12/15 15:00 LEVC 151500Z 25008KT CAVOK 19/09 Q1021 NOSIG
LEAL - Alicante/El Alte, Spain
Distacia desde Piles: SSO 94km
Actu.: 15/12/2018 16:30
Despejado
Despejado
 Viento del ONO
Viento: ONO 20 km/h
Temperatura: 19°C
Rocío: 8°C
Humedad: 49%
Barómetro: 1022 hPa
Resumen: Despejado
Visibility: greater than 10 km
2018/12/15 15:30 LEAL 151530Z 29011KT CAVOK 19/08 Q1022 NOSIG
 
LEIB - Ibiza/Es Codola, Spain
Distacia desde Piles: E 119km
Actu.: 15/12/2018 16:30
Despejado
Despejado
 Viento del SO
Viento: SO 19 km/h
Temperatura: 15°C
Rocío: 8°C
Humedad: 63%
Barómetro: 1022 hPa
Resumen: Despejado
Visibility: greater than 10 km
2018/12/15 15:30 LEIB 151530Z 23010KT CAVOK 15/08 Q1022 NOSIG
LELC - San Javier(Mil/C, Spain
Distacia desde Piles: SSO 154km
Actu.: 15/12/2018 16:30
Despejado
Despejado
 Viento del SSO
Viento: SSO 19 km/h
Temperatura: 17°C
Rocío: 8°C
Humedad: 56%
Barómetro: 1023 hPa
Resumen: Despejado
Visibility: greater than 10 km
2018/12/15 15:30 LELC 151530Z 20010KT 170V230 CAVOK 17/08 Q1023 NOSIG
 
LERI - Alcantarilla(Sp-, Spain
Distacia desde Piles: SO 158km
Actu.: 15/12/2018 16:00
Despejado
Despejado
 Viento del varies
Viento: varies 4 km/h
Temperatura: 19°C
Rocío: 5°C
Humedad: 40%
Barómetro: 1024 hPa
Resumen: Despejado
Visibility: greater than 10 km
2018/12/15 15:00 LERI 151500Z VRB02KT CAVOK 19/05 Q1024 NOSIG
LEAB - Albacete (civ/Mi, Spain
Distacia desde Piles: O 160km
Actu.: 15/12/2018 16:00
Few Clouds
Few Clouds
 Viento del O
Viento: O 20 km/h
Temperatura: 13°C
Rocío: 7°C
Humedad: 67%
Barómetro: 1025 hPa
Clouds: Few Clouds
Visibility: 10 km
Cloud details: Few Clouds 792 m
2018/12/15 15:00 LEAB 151500Z 28011KT 9999 FEW026 13/07 Q1025 NOSIG